• Join FlightAware (Why Join?)
  • Login
  • US Flag 
02:38PM EDT


 

Airport Tracker/Info


-or-


 

Live Flight TrackerFlight Track Log ✈ GJS3657 ✈ 10-Jun-2013 ✈ KALB - KORD

Flight Track Log - Related Links

Times and Time Zones

All times are in EDT time to prevent confusion due to time zone crossing. See the GJS3657 flight status page for this flight to view local times or setup timezone preferences in your user account.

Time Position Orientation Groundspeed Altitude Reporting Facility
EDT Latitude Longitude Course Direction KTS MPH feet Rate Location/Type
07:20AM 42.7672 -73.8061 333° Northwest 144 166 1,100  Level Boston Center
07:21AM 42.8086 -73.8353 333° Northwest 201 231 2,600 1,920 Climbing Boston Center
07:22AM 42.8783 -73.9219 318° Northwest 258 297 5,900 2,520 Climbing Boston Center
07:23AM 42.9400 -73.9914 321° Northwest 264 304 9,000 2,640 Climbing Boston Center
07:24AM 42.9956 -74.0497 322° Northwest 272 313 11,200 1,920 Climbing Boston Center
07:25AM 43.0672 -74.1283 321° Northwest 286 329 12,900 1,500 Climbing Boston Center
07:26AM 43.1139 -74.2178 306° West 313 360 14,300 1,680 Climbing Boston Center
07:27AM 43.1200 -74.3572 273° West 316 364 16,300 1,800 Climbing Boston Center
07:28AM 43.1239 -74.4939 272° West 345 397 17,900 1,500 Climbing Boston Center
07:29AM 43.1275 -74.6306 272° West 357 411 19,400 1,440 Climbing Boston Center
07:30AM 43.1311 -74.7703 272° West 367 422 20,800 1,380 Climbing Boston Center
07:31AM 43.1344 -74.9097 272° West 372 428 22,200 1,380 Climbing Boston Center
07:32AM 43.1394 -75.0581 273° West 378 435 23,600 1,320 Climbing Boston Center
07:33AM 43.1422 -75.2033 272° West 384 442 24,900 1,260 Climbing Boston Center
07:34AM 43.1447 -75.3486 271° West 384 442 26,200 1,200 Climbing Boston Center
07:35AM 43.1494 -75.4911 273° West 384 442 27,400 1,200 Climbing Boston Center
07:36AM 43.1664 -75.6372 279° West 384 442 28,700 1,260 Climbing Boston Center
07:37AM 43.1981 -75.7669 289° West 379 436 30,000 660 Climbing Boston Center
07:38AM 43.2317 -75.8942 290° West 366 421 30,100 300 Climbing Boston Center
07:39AM 43.2358 -76.0314 272° West 361 415 30,700 480 Climbing Boston Center
07:40AM 43.2333 -76.1767 269° West 366 421 31,100 600 Climbing Boston Center
07:42AM 43.2286 -76.3972 268° West 375 432 32,300 900 Climbing Cleveland Center
07:43AM 43.2256 -76.5428 268° West 386 444 33,400 900 Climbing Cleveland Center
07:44AM 43.2242 -76.6883 269° West 386 444 34,200 780 Climbing Cleveland Center
07:45AM 43.2206 -76.8308 268° West 386 444 35,000 780 Climbing Cleveland Center
07:46AM 43.2169 -76.9794 268° West 386 444 35,800 720 Climbing Cleveland Center
07:47AM 43.2125 -77.1050 267° West 378 435 36,500 600 Climbing Cleveland Center
07:48AM 43.2083 -77.2478 268° West 378 435 37,100 540 Climbing Cleveland Center
07:49AM 43.2061 -77.3903 269° West 378 435 37,600 420 Climbing Cleveland Center
07:50AM 43.2019 -77.5472 268° West 378 435 38,000 180 Climbing Cleveland Center
07:51AM 43.1972 -77.6928 268° West 378 435 38,000  Level Cleveland Center
07:52AM 43.1925 -77.8381 267° West 383 441 38,000  Level Cleveland Center
07:53AM 43.1897 -77.9833 269° West 388 447 38,000  Level Cleveland Center
07:54AM 43.1844 -78.1289 267° West 388 447 38,000  Level Cleveland Center
07:55AM 43.1792 -78.2744 267° West 388 447 38,000  Level Cleveland Center
07:56AM 43.1714 -78.4169 266° West 388 447 38,000  Level Cleveland Center
07:57AM 43.1681 -78.5681 268° West 388 447 38,000  Level Cleveland Center
07:58AM 43.1619 -78.7133 267° West 388 447 38,000  Level Cleveland Center
07:59AM 43.1539 -78.8672 266° West 388 447 38,000  Level Cleveland Center
07:59AM 43.1500 -78.9000 261° West 400 460 38,000  Level Toronto Center
08:00AM 43.1333 -79.0667 262° West 400 460 38,000  Level Toronto Center
08:01AM 43.1333 -79.2000 270° West 390 449 38,000  Level Toronto Center
08:02AM 43.1167 -79.3667 262° West 390 449 38,000  Level Toronto Center
08:03AM 43.1167 -79.5000 270° West 380 437 38,000  Level Toronto Center
08:04AM 43.1167 -79.6333 270° West 380 437 38,000  Level Toronto Center
08:05AM 43.1000 -79.8000 262° West 380 437 38,000  Level Toronto Center
08:06AM 43.1000 -79.9333 270° West 380 437 38,000  Level Toronto Center
08:07AM 43.0833 -80.0667 260° West 390 449 38,000  Level Toronto Center
08:08AM 43.0833 -80.2333 270° West 390 449 38,000  Level Toronto Center
08:09AM 43.0667 -80.3667 260° West 390 449 38,000  Level Toronto Center
08:10AM 43.0667 -80.5167 270° West 390 449 38,000  Level Toronto Center
08:11AM 43.0667 -80.6667 270° West 390 449 38,000  Level Toronto Center
08:12AM 43.0333 -80.8167 253° West 380 437 38,000  Level Toronto Center
08:13AM 43.0333 -80.9500 270° West 380 437 38,000  Level Toronto Center
08:14AM 43.0167 -81.1000 261° West 380 437 38,000  Level Toronto Center
08:15AM 43.0167 -81.2500 270° West 380 437 38,000  Level Toronto Center
08:16AM 43.0167 -81.3833 270° West 390 449 38,000  Level Toronto Center
08:17AM 43.0167 -81.5500 270° West 390 449 38,000  Level Toronto Center
08:18AM 43.0167 -81.6833 270° West 400 460 38,000  Level Toronto Center
08:19AM 43.0167 -81.8500 270° West 400 460 38,000  Level Toronto Center
08:20AM 43.0000 -82.0000 261° West 410 472 38,000  Level Toronto Center
08:21AM 43.0000 -82.1667 270° West 410 472 38,000  Level Toronto Center
08:22AM 43.0000 -82.3167 270° West 410 472 38,000  Level Toronto Center
08:23AM 43.0000 -82.4833 270° West 410 472 38,000  Level Toronto Center
08:24AM 42.9833 -82.6500 262° West 410 472 38,000  Level Toronto Center
08:25AM 43.0028 -82.7322 288° West 419 482 38,000  Level Cleveland Center
08:26AM 42.9978 -82.8881 268° West 419 482 38,000  Level Cleveland Center
08:27AM 42.9944 -83.0500 268° West 424 488 38,000  Level Cleveland Center
08:28AM 42.9869 -83.2058 266° West 417 480 38,000  Level Cleveland Center
08:29AM 42.9808 -83.3672 267° West 424 488 38,000 -300 Level Cleveland Center
08:30AM 42.9750 -83.5258 267° West 424 488 37,500 -3,000 Descending Cleveland Center
08:31AM 42.9647 -83.6731 265° West 431 496 32,000 -780 Descending Cleveland Center
08:32AM 42.9606 -83.8261 268° West 431 496 36,000 1,440 Climbing Cleveland Center
08:33AM 42.9433 -83.9953 262° West 409 471 34,900 -1,080 Descending Cleveland Center
08:34AM 42.9286 -84.1392 262° West 398 458 33,900 -960 Descending Cleveland Center
08:34AM 42.9233 -84.2058 264° West 395 455 33,400 -960 Descending Chicago Center
08:35AM 42.9028 -84.3897 261° West 410 472 32,300 -720 Descending Chicago Center
08:36AM 42.8878 -84.5461 263° West 417 480 32,000 -180 Descending Chicago Center
08:37AM 42.8714 -84.7025 262° West 418 481 32,000  Level Chicago Center
08:38AM 42.8553 -84.8603 262° West 421 484 32,000  Level Chicago Center
08:39AM 42.8383 -85.0189 262° West 424 488 32,000  Level Chicago Center
08:40AM 42.8214 -85.1778 262° West 424 488 32,000 -900 Level Chicago Center
08:42AM 42.8008 -85.3708 262° West 431 496 30,200 -1,800 Descending Chicago Center
08:43AM 42.7794 -85.5350 260° West 439 505 28,400 -1,800 Descending Chicago Center
08:44AM 42.7517 -85.6908 256° West 425 489 26,500 -1,800 Descending Chicago Center
08:45AM 42.7236 -85.8389 256° West 405 466 24,700 -1,800 Descending Chicago Center
08:46AM 42.6972 -85.9814 256° West 390 449 22,900 -1,800 Descending Chicago Center
08:47AM 42.6711 -86.1267 256° West 393 452 21,100 -1,800 Descending Chicago Center
08:48AM 42.6444 -86.2714 256° West 394 453 19,300 -1,980 Descending Chicago Center
08:49AM 42.6128 -86.4378 256° West 379 436 17,100 -1,920 Descending Chicago Center
08:50AM 42.5875 -86.5744 256° West 372 428 15,400 -1,560 Descending Chicago Center
08:51AM 42.5636 -86.7094 257° West 369 425 13,900 -1,440 Descending Chicago Center
08:52AM 42.5322 -86.8372 252° West 361 415 12,500 -1,320 Descending Chicago Center
08:53AM 42.4978 -86.9583 249° West 349 402 11,200 -1,080 Descending Chicago Center
08:54AM 42.4647 -87.0733 249° West 328 377 10,300 -780 Descending Chicago Center
08:55AM 42.4364 -87.1744 249° West 294 338 9,600 -660 Descending Chicago Center
08:56AM 42.3481 -87.2225 202° Southwest 291 335 9,000 -300 Descending Chicago Center
08:57AM 42.2656 -87.2222 180° South 293 337 9,000 -420 Level Chicago Center
08:58AM 42.1875 -87.2475 193° South 293 337 8,200 -780 Descending Chicago Center
08:59AM 42.1114 -87.2725 194° South 283 326 7,400 -540 Descending Chicago Center
09:00AM 42.0383 -87.3017 197° South 277 319 7,100 -240 Descending Chicago Center
09:01AM 41.9883 -87.3942 234° Southwest 278 320 7,000 -60 Descending Chicago Center
09:02AM 41.9831 -87.4958 266° West 281 323 7,000 -600 Level Chicago Center
09:03AM 41.9822 -87.5867 269° West 254 292 5,800 -1,560 Descending Chicago Center
09:04AM 41.9828 -87.6694 271° West 233 268 3,800 -1,500 Descending Chicago Center
09:05AM 41.9825 -87.7411 270° West 215 247 2,800 -1,020 Descending Chicago Center
09:06AM 41.9842 -87.8203 272° West 191 220 1,700 -720 Descending Chicago Center
09:07AM 41.9853 -87.8683 272° West 177 204 1,300 -420 Descending Chicago Center
09:10AM 41.9667 -87.9000 217° Southwest  Level FlightAware Approximate